Time;durP1;ratioP1;P1;durP2;ratioP2;P2;SDS_P1;SDS_P2;PMS_P1;PMS_P2;Temp;Humidity;BMP_temperature;BMP_pressure;BME280_temperature;BME280_humidity;BME280_pressure;Samples;Min_cycle;Max_cycle;Signal;HPM_P1;HPM_P2
2021/11/30 00:01:45;;;;;;;3.45;1.42;;;;;;;13.92;65.40;99929.53;144992;610;6002;-79
2021/11/30 00:04:15;;;;;;;2.35;1.02;;;;;;;14.04;64.56;99940.00;144992;627;6002;-77
2021/11/30 00:06:42;;;;;;;3.03;1.10;;;;;;;13.86;66.78;99943.44;144992;591;6002;-79
2021/11/30 00:12:22;;;;;;;3.20;1.00;;;;;;;13.86;65.98;99930.38;144992;597;6004;-78
2021/11/30 00:14:52;;;;;;;3.92;1.45;;;;;;;13.85;67.59;99952.09;144992;584;6004;-79
2021/11/30 00:17:19;;;;;;;3.05;0.73;;;;;;;13.79;67.39;99957.28;144992;561;6004;-79
2021/11/30 00:19:48;;;;;;;3.83;0.88;;;;;;;13.69;68.61;99948.56;144992;657;6004;-79
2021/11/30 00:22:21;;;;;;;4.47;0.90;;;;;;;13.78;67.32;99932.94;144992;583;6004;-79
2021/11/30 00:24:51;;;;;;;3.80;1.08;;;;;;;13.61;70.41;99934.63;144992;641;6004;-80
2021/11/30 00:27:18;;;;;;;6.60;1.30;;;;;;;13.60;71.79;99956.31;144992;650;6004;-78
2021/11/30 00:29:45;;;;;;;4.47;1.30;;;;;;;13.59;70.07;99972.88;144992;609;6004;-80
2021/11/30 00:32:12;;;;;;;4.12;1.00;;;;;;;13.80;66.89;99969.47;144992;591;6004;-79
2021/11/30 00:34:39;;;;;;;5.50;1.60;;;;;;;13.82;67.83;99959.91;144992;577;6004;-78
2021/11/30 00:37:05;;;;;;;6.07;0.80;;;;;;;13.87;67.75;99921.69;144992;566;6004;-80
2021/11/30 00:39:32;;;;;;;4.10;1.17;;;;;;;14.04;65.66;99955.66;144993;567;6000;-78
2021/11/30 00:42:00;;;;;;;2.60;1.00;;;;;;;14.14;65.20;99947.00;144993;586;6002;-80
2021/11/30 00:44:29;;;;;;;4.47;0.68;;;;;;;14.14;66.39;99931.34;144993;564;6002;-79
2021/11/30 00:46:59;;;;;;;3.55;0.60;;;;;;;14.01;65.48;99936.53;144993;804;6002;-79
2021/11/30 00:49:26;;;;;;;0.68;0.40;;;;;;;14.06;64.74;99948.72;144993;567;6002;-77
2021/11/30 00:51:55;;;;;;;1.67;0.57;;;;;;;14.10;64.65;99973.94;144993;575;6002;-79
2021/11/30 00:54:24;;;;;;;2.05;0.32;;;;;;;14.09;64.07;99980.06;144993;745;6002;-77
2021/11/30 00:56:52;;;;;;;3.83;0.50;;;;;;;14.15;63.65;100000.06;144993;589;6002;-79
2021/11/30 00:59:18;;;;;;;2.25;0.30;;;;;;;14.13;62.81;99973.97;144993;566;6002;-79
2021/11/30 01:01:47;;;;;;;1.10;0.40;;;;;;;14.16;62.39;100009.66;144993;628;6002;-77
2021/11/30 01:04:21;;;;;;;3.80;0.45;;;;;;;14.26;62.82;100026.22;144993;764;6002;-79
2021/11/30 01:06:48;;;;;;;0.60;0.40;;;;;;;14.40;62.47;100042.81;144993;603;6002;-78
2021/11/30 01:09:15;;;;;;;0.70;0.30;;;;;;;14.56;61.96;100054.16;144993;589;6002;-79
2021/11/30 01:11:42;;;;;;;1.37;0.50;;;;;;;14.57;61.62;100039.34;144992;590;6002;-79
2021/11/30 01:14:09;;;;;;;1.30;0.40;;;;;;;14.51;61.82;100038.47;144992;567;6002;-80
2021/11/30 01:16:36;;;;;;;2.55;0.40;;;;;;;14.42;61.62;100033.22;144992;611;6002;-80
2021/11/30 01:19:05;;;;;;;1.23;0.32;;;;;;;14.34;60.10;100032.34;144992;564;6002;-79
2021/11/30 01:21:33;;;;;;;1.55;0.40;;;;;;;14.34;61.33;100035.81;144992;761;6002;-79
2021/11/30 01:24:00;;;;;;;0.75;0.30;;;;;;;14.15;60.41;100057.50;144993;604;6002;-78
2021/11/30 01:26:27;;;;;;;2.60;0.47;;;;;;;14.18;59.73;100073.16;144993;607;6003;-79
2021/11/30 01:28:53;;;;;;;0.85;0.30;;;;;;;14.15;59.77;100105.34;144993;640;6002;-80
2021/11/30 01:31:20;;;;;;;2.10;0.40;;;;;;;14.10;59.85;100086.19;144993;591;6002;-79
2021/11/30 01:33:46;;;;;;;1.10;0.45;;;;;;;14.14;59.80;100119.28;144993;694;6002;-80
2021/11/30 01:36:13;;;;;;;0.95;0.22;;;;;;;14.07;58.95;100101.81;144992;637;6002;-80
2021/11/30 01:38:40;;;;;;;0.50;0.30;;;;;;;14.13;58.91;100127.97;144993;610;6002;-80
2021/11/30 01:41:08;;;;;;;0.62;0.20;;;;;;;14.02;55.10;100123.56;144993;612;6002;-77
2021/11/30 01:43:41;;;;;;;0.50;0.17;;;;;;;13.52;55.80;100104.94;144993;581;6002;-79
2021/11/30 01:46:11;;;;;;;1.12;0.10;;;;;;;13.28;54.05;100081.22;144993;637;6002;-80
2021/11/30 01:51:27;;;;;;;0.35;0.20;;;;;;;13.18;54.81;100088.09;144993;875;6000;-78
2021/11/30 01:53:55;;;;;;;2.53;0.25;;;;;;;13.17;56.67;100094.16;144992;598;6002;-79
2021/11/30 01:56:22;;;;;;;0.13;0.10;;;;;;;13.05;54.75;100105.34;144993;705;6002;-78
2021/11/30 01:58:50;;;;;;;1.87;0.22;;;;;;;13.11;56.24;100109.72;144993;594;6002;-79
2021/11/30 02:01:17;;;;;;;1.20;0.15;;;;;;;12.86;55.24;100092.13;144993;594;6002;-79
2021/11/30 02:03:45;;;;;;;6.93;0.55;;;;;;;12.99;56.14;100090.53;144993;605;6002;-79
2021/11/30 02:06:12;;;;;;;0.50;0.20;;;;;;;12.85;56.65;100084.31;144993;575;6002;-80
2021/11/30 02:08:38;;;;;;;0.85;0.20;;;;;;;12.97;55.24;100088.78;144993;569;6002;-79
2021/11/30 02:11:05;;;;;;;1.90;0.22;;;;;;;13.18;55.76;100054.22;144993;675;6002;-80
2021/11/30 02:13:32;;;;;;;0.98;0.25;;;;;;;13.12;56.11;100062.84;144993;639;6002;-77
2021/11/30 02:16:01;;;;;;;1.48;0.30;;;;;;;13.13;56.51;100066.34;144993;597;6002;-77
2021/11/30 02:18:30;;;;;;;0.95;0.30;;;;;;;13.25;56.74;100069.03;144993;570;6002;-79
2021/11/30 02:21:06;;;;;;;1.00;0.28;;;;;;;13.34;55.88;100084.78;144994;658;5002;-83
2021/11/30 02:23:51;;;;;;;0.50;0.30;;;;;;;13.56;56.09;100069.31;144994;644;5002;-80
2021/11/30 02:26:18;;;;;;;1.17;0.50;;;;;;;13.65;56.15;100089.38;144994;663;5002;-81
2021/11/30 02:28:50;;;;;;;0.68;0.30;;;;;;;13.74;55.93;100092.03;144994;585;5002;-78
2021/11/30 02:31:20;;;;;;;0.40;0.17;;;;;;;13.54;54.65;100112.78;144994;578;5002;-80
2021/11/30 02:33:47;;;;;;;0.80;0.28;;;;;;;13.54;55.53;100112.78;144994;572;5002;-79
2021/11/30 02:36:25;;;;;;;0.30;0.20;;;;;;;13.65;55.68;100115.44;144994;626;5002;-79
2021/11/30 02:38:55;;;;;;;0.20;0.20;;;;;;;13.67;55.40;100117.22;144994;633;5002;-79
2021/11/30 02:41:23;;;;;;;0.20;0.20;;;;;;;13.67;55.52;100124.19;144994;663;5002;-79
2021/11/30 02:43:50;;;;;;;0.37;0.15;;;;;;;13.55;54.55;100109.28;144994;580;5002;-79
2021/11/30 02:46:34;;;;;;;0.20;0.10;;;;;;;13.48;53.94;100123.16;144994;569;5002;-81
2021/11/30 02:49:03;;;;;;;0.20;0.20;;;;;;;13.60;55.02;100123.22;144994;614;5002;-80
2021/11/30 02:51:32;;;;;;;0.68;0.20;;;;;;;13.70;54.71;100127.69;144994;585;5002;-80
2021/11/30 02:54:00;;;;;;;0.22;0.20;;;;;;;13.78;54.87;100109.47;144994;809;5002;-80
2021/11/30 02:56:30;;;;;;;0.93;0.40;;;;;;;13.76;54.06;100111.19;144994;629;5002;-80
2021/11/30 02:59:03;;;;;;;0.80;0.40;;;;;;;13.93;54.68;100126.97;144994;567;5002;-79
2021/11/30 03:01:29;;;;;;;1.20;0.50;;;;;;;14.03;54.45;100135.72;144994;650;5002;-81
2021/11/30 03:03:59;;;;;;;1.40;0.95;;;;;;;14.13;54.17;100151.44;144994;587;5002;-78
2021/11/30 03:06:25;;;;;;;1.05;0.77;;;;;;;14.22;54.22;100149.75;144994;585;5002;-79
2021/11/30 03:08:52;;;;;;;1.08;0.40;;;;;;;14.32;54.04;100157.66;144994;834;5002;-79
2021/11/30 03:11:18;;;;;;;0.52;0.20;;;;;;;14.36;52.91;100165.50;144994;584;5002;-79
2021/11/30 03:13:45;;;;;;;2.67;0.30;;;;;;;14.25;53.42;100165.44;144994;648;5002;-79
2021/11/30 03:16:11;;;;;;;1.45;0.20;;;;;;;14.21;53.75;100174.12;144994;586;5002;-80
2021/11/30 03:18:38;;;;;;;0.45;0.20;;;;;;;14.19;54.08;100155.84;144994;580;5019;-80
2021/11/30 03:21:04;;;;;;;0.22;0.10;;;;;;;14.01;51.95;100148.75;144994;673;5002;-79
2021/11/30 03:23:31;;;;;;;1.23;0.20;;;;;;;13.90;53.89;100143.50;144994;563;5002;-80
2021/11/30 03:25:57;;;;;;;0.55;0.10;;;;;;;13.86;53.77;100146.06;144994;608;5002;-79
2021/11/30 03:28:24;;;;;;;0.15;0.10;;;;;;;13.75;54.13;100136.41;144994;588;5002;-79
2021/11/30 03:34:01;;;;;;;0.77;0.15;;;;;;;13.84;53.95;100117.34;144994;579;5004;-81
2021/11/30 03:36:33;;;;;;;0.30;0.10;;;;;;;13.70;53.50;100116.38;144994;587;5004;-79
2021/11/30 03:39:01;;;;;;;0.45;0.30;;;;;;;13.81;54.35;100116.44;144994;585;5004;-78
2021/11/30 03:41:33;;;;;;;0.30;0.30;;;;;;;13.79;54.12;100132.97;144994;567;5004;-78
2021/11/30 03:44:05;;;;;;;2.15;0.60;;;;;;;13.93;54.12;100140.00;144994;613;5004;-78
2021/11/30 03:46:32;;;;;;;0.68;0.32;;;;;;;13.98;53.69;100133.06;144994;583;5004;-78
2021/11/30 03:49:00;;;;;;;0.73;0.30;;;;;;;14.03;54.16;100127.88;144994;591;5004;-79
2021/11/30 03:51:26;;;;;;;0.30;0.25;;;;;;;14.08;53.83;100134.88;144994;596;5004;-78
2021/11/30 03:53:53;;;;;;;0.90;0.20;;;;;;;14.18;53.88;100138.44;144994;581;5004;-80
2021/11/30 03:56:20;;;;;;;1.15;0.43;;;;;;;14.20;53.79;100147.12;144994;598;5004;-80
2021/11/30 03:58:46;;;;;;;0.57;0.30;;;;;;;14.25;53.77;100152.37;144994;591;5004;-80
2021/11/30 04:01:13;;;;;;;0.32;0.20;;;;;;;14.26;53.63;100143.69;144994;606;5004;-83
2021/11/30 04:03:43;;;;;;;0.40;0.30;;;;;;;14.21;53.08;100159.31;144994;702;5004;-80
2021/11/30 04:06:34;;;;;;;1.08;0.35;;;;;;;14.24;53.51;100154.12;144994;615;5004;-80
2021/11/30 04:09:07;;;;;;;0.57;0.30;;;;;;;14.30;53.27;100155.87;144994;606;5004;-84
2021/11/30 04:11:40;;;;;;;0.43;0.28;;;;;;;14.33;53.54;100163.72;144994;576;5004;-80
2021/11/30 04:14:07;;;;;;;1.30;0.70;;;;;;;14.30;53.37;100167.22;144994;596;5004;-80
2021/11/30 04:16:34;;;;;;;3.60;0.50;;;;;;;14.28;53.50;100173.28;144994;570;5004;-77
2021/11/30 04:19:01;;;;;;;1.58;0.43;;;;;;;14.30;53.42;100185.50;144994;696;5004;-79
2021/11/30 04:21:28;;;;;;;2.65;0.40;;;;;;;14.25;53.34;100184.59;144993;591;5004;-78
2021/11/30 04:23:55;;;;;;;1.65;0.50;;;;;;;14.18;53.38;100174.97;144994;609;5002;-78
2021/11/30 04:26:22;;;;;;;1.85;0.43;;;;;;;14.13;53.48;100188.00;144993;683;5002;-79
2021/11/30 04:28:48;;;;;;;0.77;0.37;;;;;;;14.13;53.48;100198.44;144994;636;5002;-79
2021/11/30 04:31:15;;;;;;;1.62;0.40;;;;;;;13.96;53.90;100200.03;144994;663;5002;-79
2021/11/30 04:33:42;;;;;;;0.65;0.43;;;;;;;13.73;53.66;100194.66;144994;778;5002;-78
2021/11/30 04:36:08;;;;;;;1.23;0.50;;;;;;;13.75;53.79;100211.19;144994;598;5002;-80
2021/11/30 04:38:35;;;;;;;0.68;0.30;;;;;;;13.48;52.17;100198.78;144994;613;5002;-79
2021/11/30 04:41:02;;;;;;;0.60;0.40;;;;;;;13.52;53.94;100195.31;144994;712;5002;-80
2021/11/30 04:43:35;;;;;;;1.65;0.40;;;;;;;13.39;54.19;100197.81;144994;632;5002;-77
2021/11/30 04:46:10;;;;;;;1.15;0.50;;;;;;;13.34;54.63;100202.09;144994;603;5002;-79
2021/11/30 04:48:39;;;;;;;0.30;0.30;;;;;;;13.30;53.01;100199.41;144993;570;5002;-78
2021/11/30 04:51:11;;;;;;;0.70;0.20;;;;;;;13.45;53.94;100212.63;144994;681;5002;-78
2021/11/30 04:53:41;;;;;;;4.90;0.43;;;;;;;13.49;53.07;100224.88;144994;589;5002;-80
2021/11/30 04:56:08;;;;;;;0.47;0.28;;;;;;;13.64;53.69;100218.03;144994;573;5002;-78
2021/11/30 04:58:34;;;;;;;1.73;0.50;;;;;;;13.75;53.70;100224.22;144994;601;5002;-80
2021/11/30 05:01:01;;;;;;;2.22;0.60;;;;;;;13.83;53.43;100226.91;144994;720;5002;-79
2021/11/30 05:03:27;;;;;;;2.60;0.50;;;;;;;13.86;52.86;100219.09;144994;613;5002;-76
2021/11/30 05:05:54;;;;;;;1.25;0.98;;;;;;;13.86;53.00;100216.50;144994;622;5002;-79
2021/11/30 05:08:21;;;;;;;1.45;0.45;;;;;;;13.90;52.96;100218.25;144994;600;5002;-80
2021/11/30 05:10:48;;;;;;;2.95;0.47;;;;;;;13.91;52.79;100217.41;144994;570;5002;-79
2021/11/30 05:13:14;;;;;;;0.68;0.15;;;;;;;13.77;53.14;100215.53;144994;594;5002;-80
2021/11/30 05:15:41;;;;;;;0.30;0.10;;;;;;;13.83;53.12;100232.12;144994;572;5002;-80
2021/11/30 05:18:07;;;;;;;0.62;0.25;;;;;;;13.97;53.05;100225.28;144994;627;5002;-80
2021/11/30 05:20:34;;;;;;;1.48;0.40;;;;;;;14.07;52.72;100224.47;144994;643;5002;-79
2021/11/30 05:23:01;;;;;;;3.70;1.65;;;;;;;14.17;52.35;100238.47;144994;610;5002;-80
2021/11/30 05:25:34;;;;;;;1.75;1.20;;;;;;;14.19;52.63;100254.16;144994;602;5002;-81
2021/11/30 05:28:02;;;;;;;3.03;1.00;;;;;;;14.19;52.65;100247.22;144994;618;5002;-79
2021/11/30 05:30:36;;;;;;;3.45;0.85;;;;;;;14.23;52.44;100251.56;144994;616;5002;-79
2021/11/30 05:33:07;;;;;;;5.95;1.85;;;;;;;14.18;52.47;100242.84;144994;655;5002;-80
2021/11/30 05:35:35;;;;;;;4.53;1.50;;;;;;;14.01;52.70;100262.72;144994;715;5002;-79
2021/11/30 05:38:02;;;;;;;1.40;0.70;;;;;;;13.83;53.01;100258.22;144994;576;5002;-78
2021/11/30 05:40:29;;;;;;;2.60;0.80;;;;;;;13.75;53.29;100265.97;144994;605;5002;-78
2021/11/30 05:42:55;;;;;;;1.67;0.62;;;;;;;13.79;53.06;100268.63;144994;616;5002;-80
2021/11/30 05:45:22;;;;;;;1.27;0.80;;;;;;;13.84;53.12;100273.00;144994;582;5002;-80
2021/11/30 05:47:48;;;;;;;1.62;0.93;;;;;;;13.92;52.93;100274.81;144994;716;5002;-81
2021/11/30 05:50:15;;;;;;;2.08;1.02;;;;;;;13.95;53.13;100280.06;144994;615;5002;-79
2021/11/30 05:52:41;;;;;;;1.73;0.90;;;;;;;14.03;52.61;100289.69;144994;743;5002;-79
2021/11/30 05:55:09;;;;;;;2.37;1.00;;;;;;;14.12;52.40;100301.06;144994;573;5002;-80
2021/11/30 05:57:38;;;;;;;1.37;0.70;;;;;;;14.30;52.44;100307.31;144994;605;5002;-80
2021/11/30 06:00:06;;;;;;;2.62;0.80;;;;;;;14.48;52.06;100302.25;144994;585;5002;-79
2021/11/30 06:02:39;;;;;;;2.03;0.90;;;;;;;14.77;51.99;100316.41;144994;644;5002;-79
2021/11/30 06:05:07;;;;;;;2.08;1.23;;;;;;;15.11;51.42;100308.72;144994;576;5002;-79
2021/11/30 06:07:34;;;;;;;5.55;1.30;;;;;;;15.66;51.13;100319.38;144994;658;5002;-79
2021/11/30 06:10:01;;;;;;;2.85;1.05;;;;;;;16.21;49.43;100318.63;144994;638;5002;-80
2021/11/30 06:12:27;;;;;;;1.83;0.70;;;;;;;16.80;47.38;100313.34;144994;582;5002;-80
2021/11/30 06:14:53;;;;;;;6.78;1.25;;;;;;;16.75;46.19;100315.97;144994;564;5002;-79
2021/11/30 06:17:21;;;;;;;4.65;1.40;;;;;;;17.65;48.00;100320.91;144994;582;5002;-79
2021/11/30 06:19:47;;;;;;;5.55;1.90;;;;;;;18.80;46.42;100309.50;144994;612;5002;-78
2021/11/30 06:22:14;;;;;;;3.78;1.60;;;;;;;19.22;45.39;100303.78;144994;628;5002;-79
2021/11/30 06:24:40;;;;;;;2.33;0.73;;;;;;;19.08;45.31;100311.84;144994;581;5002;-80
2021/11/30 06:27:07;;;;;;;1.08;0.70;;;;;;;18.90;45.25;100307.69;144994;627;5002;-80
2021/11/30 06:29:33;;;;;;;4.95;1.55;;;;;;;18.56;45.13;100299.22;144994;572;5002;-79
2021/11/30 06:32:00;;;;;;;5.72;1.15;;;;;;;18.41;46.27;100292.38;144994;634;5002;-80
2021/11/30 06:34:26;;;;;;;6.57;1.30;;;;;;;18.33;46.28;100304.72;144994;683;5002;-80
2021/11/30 06:36:53;;;;;;;4.18;0.95;;;;;;;18.35;46.44;100308.19;144994;617;5002;-80
2021/11/30 06:39:22;;;;;;;2.55;0.90;;;;;;;18.45;47.29;100312.47;144994;557;5002;-79
2021/11/30 06:41:48;;;;;;;2.60;0.50;;;;;;;18.64;47.15;100315.78;144994;585;5002;-80
2021/11/30 06:44:15;;;;;;;2.95;0.75;;;;;;;18.84;47.29;100319.13;144994;569;5002;-79
2021/11/30 06:46:41;;;;;;;2.47;1.08;;;;;;;19.06;47.33;100318.00;144994;651;5002;-79
2021/11/30 06:49:08;;;;;;;1.70;0.70;;;;;;;19.28;47.36;100331.78;144994;570;5002;-79
2021/11/30 06:51:34;;;;;;;3.33;0.80;;;;;;;19.48;46.75;100342.06;144994;603;4566;-80
2021/11/30 06:54:01;;;;;;;2.40;1.17;;;;;;;19.66;46.20;100335.69;144994;585;4572;-80
2021/11/30 06:56:27;;;;;;;4.30;1.52;;;;;;;19.78;45.54;100342.59;144994;577;4572;-79
2021/11/30 06:58:55;;;;;;;5.35;1.25;;;;;;;19.89;45.45;100344.16;144992;647;6002;-79
2021/11/30 07:01:21;;;;;;;4.72;1.25;;;;;;;20.03;45.28;100351.00;144992;565;6002;-80
2021/11/30 07:03:48;;;;;;;3.80;1.10;;;;;;;20.13;45.32;100357.84;144992;655;6002;-80
2021/11/30 07:09:18;;;;;;;3.80;0.90;;;;;;;20.39;45.09;100370.59;144992;596;6004;-79
2021/11/30 07:12:03;;;;;;;1.92;0.70;;;;;;;20.45;44.91;100367.88;144992;584;6004;-80
2021/11/30 07:14:31;;;;;;;3.30;0.80;;;;;;;20.62;44.79;100379.94;144992;638;6004;-81
2021/11/30 07:16:59;;;;;;;4.65;1.10;;;;;;;20.73;44.70;100369.19;144991;564;6000;-78
2021/11/30 07:19:29;;;;;;;6.95;1.27;;;;;;;20.61;44.58;100376.41;144992;614;6002;-80
2021/11/30 07:21:58;;;;;;;8.85;1.52;;;;;;;20.73;44.50;100370.09;144992;576;6002;-77
2021/11/30 07:24:44;;;;;;;2.87;0.70;;;;;;;20.80;44.45;100368.19;144992;564;6002;-79
2021/11/30 07:27:21;;;;;;;2.42;0.50;;;;;;;20.66;44.22;100371.06;144992;613;6002;-81
2021/11/30 07:29:55;;;;;;;2.60;0.98;;;;;;;20.42;43.16;100370.56;144992;670;6002;-79
2021/11/30 07:32:25;;;;;;;1.37;0.90;;;;;;;20.35;44.08;100368.06;144992;603;6002;-79
2021/11/30 07:34:52;;;;;;;2.67;1.00;;;;;;;20.28;43.45;100372.53;144992;569;6002;-80
2021/11/30 07:37:18;;;;;;;2.83;1.35;;;;;;;20.37;43.35;100387.38;144991;638;6002;-82
2021/11/30 07:39:45;;;;;;;1.40;0.65;;;;;;;20.50;43.56;100383.63;144992;586;6002;-80
2021/11/30 07:42:12;;;;;;;2.78;0.60;;;;;;;20.66;42.44;100384.25;144992;659;6002;-81
2021/11/30 07:44:41;;;;;;;3.75;0.65;;;;;;;20.59;43.01;100395.78;144992;566;6002;-81
2021/11/30 07:47:08;;;;;;;4.53;0.47;;;;;;;20.78;43.62;100399.03;144992;683;6002;-80
2021/11/30 07:49:35;;;;;;;3.50;1.62;;;;;;;20.95;42.26;100418.06;144992;664;6002;-80
2021/11/30 07:52:06;;;;;;;5.70;3.55;;;;;;;21.02;43.00;100411.75;144992;596;6002;-81
2021/11/30 07:54:34;;;;;;;4.97;3.20;;;;;;;20.92;42.59;100423.37;144992;619;6002;-80
2021/11/30 07:57:04;;;;;;;13.62;7.37;;;;;;;21.01;42.25;100428.50;144992;593;6002;-79
2021/11/30 07:59:36;;;;;;;9.55;6.10;;;;;;;21.30;42.68;100440.28;144992;578;6002;-81
2021/11/30 08:02:09;;;;;;;11.52;7.35;;;;;;;21.56;42.17;100442.44;144992;570;6002;-80
2021/11/30 08:04:36;;;;;;;4.70;3.20;;;;;;;21.75;41.76;100450.00;144992;565;6002;-77
2021/11/30 08:07:03;;;;;;;3.08;1.50;;;;;;;21.87;41.52;100451.50;144992;643;6002;-79
2021/11/30 08:09:34;;;;;;;3.47;1.40;;;;;;;21.91;41.28;100455.84;144992;573;6002;-80
2021/11/30 08:12:01;;;;;;;2.90;0.70;;;;;;;21.93;40.91;100461.94;144992;577;6002;-79
2021/11/30 08:14:28;;;;;;;1.75;0.95;;;;;;;21.89;41.29;100470.87;144992;593;6002;-80
2021/11/30 08:16:55;;;;;;;7.30;1.55;;;;;;;21.90;41.00;100473.47;144992;578;6002;-81
2021/11/30 08:19:23;;;;;;;2.58;1.30;;;;;;;21.92;40.67;100473.41;144992;569;6002;-80
2021/11/30 08:21:50;;;;;;;3.17;1.10;;;;;;;21.93;40.44;100468.09;144992;664;6002;-80
2021/11/30 08:24:16;;;;;;;1.75;1.10;;;;;;;21.91;40.51;100472.56;144992;666;6002;-80
2021/11/30 08:26:43;;;;;;;2.85;1.60;;;;;;;21.92;40.21;100469.00;144992;596;6002;-80
2021/11/30 08:29:09;;;;;;;1.48;0.80;;;;;;;21.93;40.22;100462.81;144992;569;6002;-80
2021/11/30 08:31:37;;;;;;;3.00;0.95;;;;;;;21.92;40.29;100469.00;144992;638;6002;-80
2021/11/30 08:34:04;;;;;;;1.48;1.10;;;;;;;22.00;40.06;100473.25;144991;587;6002;-80
2021/11/30 08:36:30;;;;;;;2.65;1.60;;;;;;;22.06;39.99;100471.37;144992;581;6002;-80
2021/11/30 08:38:57;;;;;;;6.50;4.20;;;;;;;22.14;40.04;100472.97;144992;570;6002;-80
2021/11/30 08:41:24;;;;;;;9.30;5.68;;;;;;;22.22;40.06;100473.66;144992;636;6002;-80
2021/11/30 08:43:51;;;;;;;3.67;1.83;;;;;;;21.91;38.72;100454.06;144992;630;6002;-81
2021/11/30 08:46:17;;;;;;;12.50;5.57;;;;;;;21.85;39.31;100463.87;144992;594;6002;-79
2021/11/30 08:48:44;;;;;;;29.73;14.27;;;;;;;21.61;38.64;100470.56;144992;606;6002;-79
2021/11/30 08:51:10;;;;;;;17.45;12.00;;;;;;;21.22;37.64;100471.25;144992;631;6002;-80
2021/11/30 08:53:37;;;;;;;12.02;8.68;;;;;;;21.05;33.65;100479.47;144992;633;6002;-81
2021/11/30 08:56:04;;;;;;;10.35;3.78;;;;;;;20.79;34.19;100474.59;144992;612;6002;-80
2021/11/30 08:58:32;;;;;;;7.37;2.47;;;;;;;20.58;34.79;100481.91;144992;580;6002;-80
2021/11/30 09:00:59;;;;;;;4.03;2.33;;;;;;;20.48;37.29;100486.47;144992;590;6002;-81
2021/11/30 09:03:25;;;;;;;7.60;2.22;;;;;;;20.87;38.56;100491.19;144992;578;6002;-79
2021/11/30 09:05:52;;;;;;;4.65;2.25;;;;;;;20.67;37.74;100496.78;144992;687;6002;-81
2021/11/30 09:08:18;;;;;;;2.40;1.48;;;;;;;20.83;38.38;100500.03;144992;703;6002;-81
2021/11/30 09:10:47;;;;;;;2.70;1.60;;;;;;;20.56;32.21;100486.34;144992;569;6002;-80
2021/11/30 09:13:14;;;;;;;3.87;1.23;;;;;;;20.51;36.51;100496.09;144992;647;6002;-81
2021/11/30 09:15:40;;;;;;;2.35;1.20;;;;;;;19.93;31.81;100482.84;144992;620;6002;-80
2021/11/30 09:18:10;;;;;;;5.07;2.95;;;;;;;20.09;36.12;100495.81;144992;723;6002;-79
2021/11/30 09:20:36;;;;;;;5.85;2.67;;;;;;;19.88;37.60;100497.81;144992;624;6002;-79
2021/11/30 09:23:05;;;;;;;13.45;6.53;;;;;;;20.07;35.96;100505.50;144992;581;6002;-82
2021/11/30 09:25:32;;;;;;;20.42;11.23;;;;;;;20.29;36.96;100511.34;144992;579;6002;-80
2021/11/30 09:28:01;;;;;;;7.15;3.42;;;;;;;20.48;35.26;100512.84;144992;636;6002;-80
2021/11/30 09:30:28;;;;;;;3.47;2.08;;;;;;;20.55;35.10;100513.59;144992;617;6002;-81
2021/11/30 09:32:55;;;;;;;2.70;1.60;;;;;;;20.77;37.05;100508.91;144992;578;6002;-80
2021/11/30 09:35:23;;;;;;;3.53;2.10;;;;;;;21.01;35.61;100498.88;144992;653;6002;-80
2021/11/30 09:37:51;;;;;;;2.30;1.08;;;;;;;21.12;35.19;100499.53;144992;649;6002;-82
2021/11/30 09:40:28;;;;;;;3.17;0.80;;;;;;;20.95;32.85;100506.88;144992;637;6002;-78
2021/11/30 09:42:55;;;;;;;3.12;0.60;;;;;;;20.92;34.93;100512.19;144992;590;6002;-80
2021/11/30 09:45:24;;;;;;;4.07;0.90;;;;;;;21.26;36.54;100517.78;144992;559;6002;-80
2021/11/30 09:47:51;;;;;;;1.95;0.57;;;;;;;21.30;35.61;100506.28;144992;570;6002;-80
2021/11/30 09:50:20;;;;;;;4.85;0.82;;;;;;;21.53;35.84;100502.38;144992;741;6002;-82
2021/11/30 09:52:51;;;;;;;4.30;0.70;;;;;;;21.73;35.57;100510.78;144992;630;6002;-81
2021/11/30 09:55:21;;;;;;;1.77;0.80;;;;;;;21.88;35.45;100511.37;144991;592;6002;-80
2021/11/30 09:57:48;;;;;;;2.25;1.00;;;;;;;22.03;34.86;100520.75;144992;614;6002;-80
2021/11/30 10:00:15;;;;;;;2.65;0.70;;;;;;;22.06;33.36;100504.84;144992;581;6002;-80
2021/11/30 10:02:42;;;;;;;2.92;0.68;;;;;;;21.63;33.59;100506.56;144992;636;6002;-81
2021/11/30 10:05:09;;;;;;;7.78;0.90;;;;;;;21.48;32.31;100498.94;144992;569;6002;-81
2021/11/30 10:07:45;;;;;;;14.13;1.70;;;;;;;21.09;34.18;100501.37;144992;626;6002;-81
2021/11/30 10:10:23;;;;;;;11.30;1.58;;;;;;;21.04;30.56;100498.81;144992;585;6002;-81
2021/11/30 10:13:30;;;;;;;2.62;0.62;;;;;;;20.68;30.49;100500.28;144992;598;6002;-80
2021/11/30 10:16:03;;;;;;;6.55;1.02;;;;;;;20.62;33.85;100499.47;144992;575;6004;-80
2021/11/30 10:18:37;;;;;;;1.70;0.50;;;;;;;20.17;30.27;100501.87;144992;571;6004;-80
2021/11/30 10:21:29;;;;;;;1.60;0.60;;;;;;;20.37;31.99;100508.63;144992;571;6004;-81
2021/11/30 10:24:00;;;;;;;2.78;0.80;;;;;;;20.51;30.59;100519.84;144992;572;6002;-80
2021/11/30 10:26:37;;;;;;;2.37;0.70;;;;;;;20.93;33.52;100516.59;144992;646;6002;-81
2021/11/30 10:29:12;;;;;;;1.50;0.50;;;;;;;21.01;33.08;100514.69;144992;571;6002;-80
2021/11/30 10:31:47;;;;;;;3.55;0.60;;;;;;;20.95;31.25;100505.13;144992;606;6002;-77
2021/11/30 10:34:28;;;;;;;3.22;0.57;;;;;;;20.65;29.99;100499.44;144992;591;6002;-80
2021/11/30 10:37:14;;;;;;;4.85;0.50;;;;;;;21.10;33.73;100496.06;144992;569;6002;-80
2021/11/30 10:39:42;;;;;;;1.62;0.70;;;;;;;21.16;30.32;100489.84;144991;619;6000;-80
2021/11/30 10:42:15;;;;;;;0.90;0.50;;;;;;;20.20;31.59;100490.41;144992;584;6002;-80
2021/11/30 10:44:43;;;;;;;2.15;0.80;;;;;;;20.74;33.09;100501.03;144992;630;6002;-80
2021/11/30 10:47:22;;;;;;;5.22;1.70;;;;;;;20.70;33.53;100503.78;144992;578;6002;-80
2021/11/30 10:49:53;;;;;;;3.50;0.90;;;;;;;20.40;30.96;100504.16;144992;574;6002;-80
2021/11/30 10:52:26;;;;;;;3.15;1.10;;;;;;;20.21;31.41;100508.81;144991;572;6002;-80
2021/11/30 10:55:07;;;;;;;1.23;0.68;;;;;;;19.64;33.49;100505.97;144992;579;6002;-79
2021/11/30 10:57:36;;;;;;;2.30;0.57;;;;;;;19.22;31.62;100511.66;144992;595;6002;-80
2021/11/30 11:00:36;;;;;;;1.87;0.70;;;;;;;19.12;32.34;100517.88;144992;574;6002;-81
2021/11/30 11:03:07;;;;;;;1.67;0.73;;;;;;;19.11;34.83;100522.28;144992;566;6004;-79
2021/11/30 11:05:42;;;;;;;2.55;1.30;;;;;;;19.21;34.14;100510.78;144992;670;6004;-79
2021/11/30 11:08:17;;;;;;;1.62;0.70;;;;;;;19.28;33.00;100515.97;144992;591;6004;-80
2021/11/30 11:10:45;;;;;;;;;;;;;;;19.10;32.66;100507.38;144997;910;6004;-80
2021/11/30 11:13:30;;;;;;;6.62;0.90;;;;;;;19.10;34.33;100512.63;144997;575;6002;-79
2021/11/30 11:15:59;;;;;;;1.98;0.50;;;;;;;19.00;33.10;100503.09;144992;580;6002;-81
2021/11/30 11:18:29;;;;;;;3.40;1.20;;;;;;;18.47;34.04;100516.56;144992;576;6002;-81
2021/11/30 11:21:15;;;;;;;1.73;1.00;;;;;;;18.34;34.51;100508.75;144992;588;6002;-82
2021/11/30 11:23:44;;;;;;;1.77;0.70;;;;;;;17.93;36.11;100526.47;144992;781;6004;-79
2021/11/30 11:26:25;;;;;;;1.67;0.55;;;;;;;18.05;36.27;100513.28;144992;623;6004;-80
2021/11/30 11:28:53;;;;;;;2.25;0.60;;;;;;;17.92;36.38;100517.69;144992;680;6004;-80
2021/11/30 11:31:22;;;;;;;1.37;0.70;;;;;;;18.23;36.48;100516.69;144991;651;6000;-79
2021/11/30 11:33:49;;;;;;;2.95;1.02;;;;;;;18.40;36.47;100511.34;144992;638;6002;-81
2021/11/30 11:36:16;;;;;;;2.50;0.90;;;;;;;18.75;36.23;100519.00;144992;648;6002;-79
2021/11/30 11:38:43;;;;;;;4.78;1.20;;;;;;;18.79;36.54;100535.66;144992;564;6002;-80
2021/11/30 11:41:10;;;;;;;1.62;0.73;;;;;;;18.32;37.52;100548.19;144992;651;6002;-80
2021/11/30 11:43:39;;;;;;;2.28;0.80;;;;;;;18.09;38.61;100564.06;144992;614;6002;-79
2021/11/30 11:46:11;;;;;;;1.50;0.80;;;;;;;18.36;37.90;100570.94;144992;572;6002;-81
2021/11/30 11:48:38;;;;;;;3.37;0.80;;;;;;;18.31;38.73;100576.22;144992;589;6002;-79
2021/11/30 11:51:06;;;;;;;1.70;0.50;;;;;;;17.45;38.61;100573.78;144992;673;6002;-79
2021/11/30 11:53:56;;;;;;;0.77;0.57;;;;;;;17.14;38.75;100581.66;144992;597;6002;-79
2021/11/30 11:56:31;;;;;;;1.35;0.60;;;;;;;16.48;39.33;100586.72;144992;591;6002;-80